Pullman, WA (99164)

11:25 PM PDT on July 31, 2015 (GMT -0700)
Paradise Creek Brewery - Downtown Pullman | | Change Station
CLOSE
Current Station
Personal Weather Station
Location: Pullman, WA
Elevation: 2346 ft
Nearby Weather Stations

Elev 2346 ft 46.73 °N, 117.18 °W | Updated 8 seconds ago

Clear
Clear
69.9 °F
Feels Like 69.9 °F
N
0.0
Wind Variable Wind from East
Gusts 3.0 mph

Today
High -- | Low -- °F
--% Chance of Precip.
Yesterday
High -- | Low -- °F
Precip. -- in
5:27 AM 8:21 PM
Full, 99% visible
Pressure 29.96 in
Visibility 9.0 miles
Clouds Clear
Dew Point 46 °F
Humidity 42%
Rainfall 0.00 in
Snow Depth Not available.
UV 0 out of 12
Pollen 6.50 out of 12
Air Quality Not available.
Flu Activity Not available.
METAR KPUW 010553Z AUTO 00000KT 9SM CLR 18/01 A3002 RMK AO2 SLP146 T01780011 10367 20172 50004

More Conditions Fewer Conditions

Pressure 29.96 in
Visibility 9.0 miles
Clouds Clear
Dew Point 46 °F
Humidity 42%
Rainfall 0.00 in
Snow Depth Not available.
UV 0 out of 12
Pollen 6.50 out of 12
Air Quality Not available.
Flu Activity Not available.
METAR KPUW 010553Z AUTO 00000KT 9SM CLR 18/01 A3002 RMK AO2 SLP146 T01780011 10367 20172 50004

More Conditions Fewer Conditions

10-Day Weather Forecast

×

Almanac

Astronomy

Jul. 31, 2015 Rise Set
Actual Time
Civil Twilight
Nautical Twilight
Astronomical Twilight
Moon
Length of Visible Light
Length of Day
Tomorrow will be .
, % of the Moon is Illuminated

Today's Extremes

State Highs State Lows

Community

WunderPhotos

Upload Photos

1,842,892 photos uploaded!

WunderBlogs® & News

Nearby

Air Quality

  Air Quality AQ Index Pollutant
Not available.

Snow Depth

Station Depth Elevation

Earthquake Activity

City Distance Mag. Time & Date
Minimum magnitude displayed is 2.5.

Coastal Water Temperatures

Place Temperature

Stations

Nearby Weather Stations

Station Location Temp. Windchill Dew Point Humidity Wind Precip. Elev Updated Type